Martorell — HPNE — position and weather

sailwx.info

Track history (hours):
 
Tides and Currents Weather Stations Pressure Air Temp Water Temp Dewpoint Dewpoint Depression Visibility Wind Speed Wind Dir Waves Ship Positions

Martorell

Last reported at 2018-Jan-20 08:30 UTC. Time now 2018-Jan-20 08:55 UTC.
Position N 35°24' E 139°42'.

Type: Cargo ship. MMSI: 351780000.

Date/timePositionNaut miles runAvg speedWind from/ knotsBaromVisibWave heightAir tempDewpointWater temp
2018-Jan-20 08:30N 35°24' E 139°42'2 3.3
2018-Jan-20 08:01N 35°25' E 139°41'0 0.0
2018-Jan-20 07:28N 35°25' E 139°41'0 0.0
2018-Jan-20 06:58N 35°25' E 139°41'0 0.0
2018-Jan-20 06:28N 35°25' E 139°41'0 0.0
2018-Jan-20 05:58N 35°25' E 139°41'0 0.0
2018-Jan-20 05:28N 35°25' E 139°41'0 0.1
2018-Jan-20 04:58N 35°25' E 139°41'0 0.1
2018-Jan-20 04:28N 35°25' E 139°41'0 0.1
2018-Jan-20 03:58N 35°25' E 139°41'0 0.1
2018-Jan-20 03:28N 35°25' E 139°41'0 0.0
2018-Jan-20 02:58N 35°25' E 139°41'0 0.0
2018-Jan-20 02:28N 35°25' E 139°41'0 0.0
2018-Jan-20 01:58N 35°25' E 139°41'0 0.0
2018-Jan-20 01:28N 35°25' E 139°41'0 0.0
2018-Jan-20 00:58N 35°25' E 139°41'0 0.0
2018-Jan-20 00:28N 35°25' E 139°41'0 0.1
2018-Jan-19 23:58N 35°25' E 139°41'0 0.1
2018-Jan-19 23:28N 35°25' E 139°41'0 0.0
2018-Jan-19 22:58N 35°25' E 139°41'0 0.0
2018-Jan-19 22:28N 35°25' E 139°41'1 2.1
2018-Jan-19 22:00N 35°25' E 139°42'4 8.5
2018-Jan-19 21:30N 35°21' E 139°43'612.6
2018-Jan-19 21:00N 35°16' E 139°47'612.0
2018-Jan-19 20:30N 35°10' E 139°47'4 8.0
2018-Jan-19 20:00N 35°06' E 139°46'3 6.3
2018-Jan-19 19:30N 35°03' E 139°44'4 7.6
2018-Jan-19 19:00N 34°60' E 139°42'4 7.1
2018-Jan-19 18:30N 34°56' E 139°40'4 8.1
2018-Jan-19 18:00N 34°52' E 139°40'5 9.4
2018-Jan-19 17:28N 34°47' E 139°39'4 9.6
2018-Jan-19 17:00N 34°43' E 139°38'5 9.6
2018-Jan-19 16:27N 34°38' E 139°36'5 9.4
2018-Jan-19 15:55N 34°33' E 139°34'5 9.5
2018-Jan-19 15:26N 34°29' E 139°33'610.7
2018-Jan-19 14:50N 34°22' E 139°31'612.8
2018-Jan-19 14:23N 34°17' E 139°30'3 6.9
2018-Jan-19 14:00N 34°17' E 139°33'5 9.9
2018-Jan-19 13:30N 34°19' E 139°38'5 9.1
2018-Jan-19 12:57N 34°20' E 139°44'713.5
2018-Jan-19 12:26N 34°16' E 139°37'  
2018-Jan-12 00:18N 23°51' E 118°26'  
Track history (hours):
 
Tides and Currents Weather Stations Pressure Air Temp Water Temp Dewpoint Dewpoint Depression Visibility Wind Speed Wind Dir Waves Ship Positions

Martorell

Last reported at 2018-Jan-20 08:30 UTC. Time now 2018-Jan-20 08:55 UTC.
Position N 35°24' E 139°42'.

Type: Cargo ship. MMSI: 351780000.

Date/timePositionNaut miles runAvg speedWind from/ knotsBaromVisibWave heightAir tempDewpointWater temp
2018-Jan-20 08:30N 35°24' E 139°42'2 3.3
2018-Jan-20 08:01N 35°25' E 139°41'0 0.0
2018-Jan-20 07:28N 35°25' E 139°41'0 0.0
2018-Jan-20 06:58N 35°25' E 139°41'0 0.0
2018-Jan-20 06:28N 35°25' E 139°41'0 0.0
2018-Jan-20 05:58N 35°25' E 139°41'0 0.0
2018-Jan-20 05:28N 35°25' E 139°41'0 0.1
2018-Jan-20 04:58N 35°25' E 139°41'0 0.1
2018-Jan-20 04:28N 35°25' E 139°41'0 0.1
2018-Jan-20 03:58N 35°25' E 139°41'0 0.1
2018-Jan-20 03:28N 35°25' E 139°41'0 0.0
2018-Jan-20 02:58N 35°25' E 139°41'0 0.0
2018-Jan-20 02:28N 35°25' E 139°41'0 0.0
2018-Jan-20 01:58N 35°25' E 139°41'0 0.0
2018-Jan-20 01:28N 35°25' E 139°41'0 0.0
2018-Jan-20 00:58N 35°25' E 139°41'0 0.0
2018-Jan-20 00:28N 35°25' E 139°41'0 0.1
2018-Jan-19 23:58N 35°25' E 139°41'0 0.1
2018-Jan-19 23:28N 35°25' E 139°41'0 0.0
2018-Jan-19 22:58N 35°25' E 139°41'0 0.0
2018-Jan-19 22:28N 35°25' E 139°41'1 2.1
2018-Jan-19 22:00N 35°25' E 139°42'4 8.5
2018-Jan-19 21:30N 35°21' E 139°43'612.6
2018-Jan-19 21:00N 35°16' E 139°47'612.0
2018-Jan-19 20:30N 35°10' E 139°47'4 8.0
2018-Jan-19 20:00N 35°06' E 139°46'3 6.3
2018-Jan-19 19:30N 35°03' E 139°44'4 7.6
2018-Jan-19 19:00N 34°60' E 139°42'4 7.1
2018-Jan-19 18:30N 34°56' E 139°40'4 8.1
2018-Jan-19 18:00N 34°52' E 139°40'5 9.4
2018-Jan-19 17:28N 34°47' E 139°39'4 9.6
2018-Jan-19 17:00N 34°43' E 139°38'5 9.6
2018-Jan-19 16:27N 34°38' E 139°36'5 9.4
2018-Jan-19 15:55N 34°33' E 139°34'5 9.5
2018-Jan-19 15:26N 34°29' E 139°33'610.7
2018-Jan-19 14:50N 34°22' E 139°31'612.8
2018-Jan-19 14:23N 34°17' E 139°30'3 6.9
2018-Jan-19 14:00N 34°17' E 139°33'5 9.9
2018-Jan-19 13:30N 34°19' E 139°38'5 9.1
2018-Jan-19 12:57N 34°20' E 139°44'713.5
2018-Jan-19 12:26N 34°16' E 139°37'  
2018-Jan-12 00:18N 23°51' E 118°26'  

Dump ship's entire track history